sensor_id;sensor_type;location;lat;lon;timestamp;P1;durP1;ratioP1;P2;durP2;ratioP2
2187;SDS011;1100;52.014;8.540;2022-09-03T00:00:35;3.58;;;0.68;;
2187;SDS011;1100;52.014;8.540;2022-09-03T00:08:18;3.38;;;0.88;;
2187;SDS011;1100;52.014;8.540;2022-09-03T00:11:02;3.35;;;0.75;;
2187;SDS011;1100;52.014;8.540;2022-09-03T00:14:03;2.92;;;0.77;;
2187;SDS011;1100;52.014;8.540;2022-09-03T00:16:45;3.87;;;0.90;;
2187;SDS011;1100;52.014;8.540;2022-09-03T00:19:17;3.83;;;1.30;;
2187;SDS011;1100;52.014;8.540;2022-09-03T00:21:50;3.42;;;0.63;;
2187;SDS011;1100;52.014;8.540;2022-09-03T00:24:21;2.72;;;0.80;;
2187;SDS011;1100;52.014;8.540;2022-09-03T00:26:50;2.30;;;0.70;;
2187;SDS011;1100;52.014;8.540;2022-09-03T00:29:32;2.73;;;0.90;;
2187;SDS011;1100;52.014;8.540;2022-09-03T00:32:03;2.42;;;0.80;;
2187;SDS011;1100;52.014;8.540;2022-09-03T00:34:34;2.85;;;0.70;;
2187;SDS011;1100;52.014;8.540;2022-09-03T00:37:05;3.60;;;0.80;;
2187;SDS011;1100;52.014;8.540;2022-09-03T00:39:32;3.20;;;0.90;;
2187;SDS011;1100;52.014;8.540;2022-09-03T00:45:02;2.70;;;0.63;;
2187;SDS011;1100;52.014;8.540;2022-09-03T00:58:50;4.30;;;0.77;;
2187;SDS011;1100;52.014;8.540;2022-09-03T01:07:06;2.50;;;0.80;;
2187;SDS011;1100;52.014;8.540;2022-09-03T01:10:09;3.45;;;0.85;;
2187;SDS011;1100;52.014;8.540;2022-09-03T01:26:30;3.47;;;0.70;;
2187;SDS011;1100;52.014;8.540;2022-09-03T01:29:16;2.90;;;0.70;;
2187;SDS011;1100;52.014;8.540;2022-09-03T01:31:57;2.90;;;0.80;;
2187;SDS011;1100;52.014;8.540;2022-09-03T01:40:20;2.72;;;0.90;;
2187;SDS011;1100;52.014;8.540;2022-09-03T01:56:18;5.00;;;1.00;;
2187;SDS011;1100;52.014;8.540;2022-09-03T02:01:49;3.20;;;0.80;;
2187;SDS011;1100;52.014;8.540;2022-09-03T02:04:19;2.33;;;0.60;;
2187;SDS011;1100;52.014;8.540;2022-09-03T02:06:47;3.88;;;1.00;;
2187;SDS011;1100;52.014;8.540;2022-09-03T02:09:16;3.03;;;1.00;;
2187;SDS011;1100;52.014;8.540;2022-09-03T02:11:43;3.40;;;0.68;;
2187;SDS011;1100;52.014;8.540;2022-09-03T02:14:10;3.33;;;1.10;;
2187;SDS011;1100;52.014;8.540;2022-09-03T02:16:36;4.60;;;0.80;;
2187;SDS011;1100;52.014;8.540;2022-09-03T02:19:07;3.55;;;0.70;;
2187;SDS011;1100;52.014;8.540;2022-09-03T02:21:37;4.07;;;0.67;;
2187;SDS011;1100;52.014;8.540;2022-09-03T02:24:04;2.47;;;0.65;;
2187;SDS011;1100;52.014;8.540;2022-09-03T02:26:32;3.65;;;0.80;;
2187;SDS011;1100;52.014;8.540;2022-09-03T02:28:57;4.30;;;0.80;;
2187;SDS011;1100;52.014;8.540;2022-09-03T02:31:23;3.33;;;0.50;;
2187;SDS011;1100;52.014;8.540;2022-09-03T02:33:49;2.78;;;0.70;;
2187;SDS011;1100;52.014;8.540;2022-09-03T02:36:24;4.67;;;0.60;;
2187;SDS011;1100;52.014;8.540;2022-09-03T02:38:52;2.85;;;0.70;;
2187;SDS011;1100;52.014;8.540;2022-09-03T02:41:17;3.10;;;0.90;;
2187;SDS011;1100;52.014;8.540;2022-09-03T02:43:50;2.50;;;0.70;;
2187;SDS011;1100;52.014;8.540;2022-09-03T02:46:29;4.37;;;0.93;;
2187;SDS011;1100;52.014;8.540;2022-09-03T02:48:59;2.60;;;0.70;;
2187;SDS011;1100;52.014;8.540;2022-09-03T02:51:25;2.40;;;0.65;;
2187;SDS011;1100;52.014;8.540;2022-09-03T02:53:50;2.97;;;0.70;;
2187;SDS011;1100;52.014;8.540;2022-09-03T02:56:15;2.87;;;0.80;;
2187;SDS011;1100;52.014;8.540;2022-09-03T02:58:41;2.33;;;0.50;;
2187;SDS011;1100;52.014;8.540;2022-09-03T03:01:06;3.33;;;0.70;;
2187;SDS011;1100;52.014;8.540;2022-09-03T03:03:32;3.92;;;0.88;;
2187;SDS011;1100;52.014;8.540;2022-09-03T03:05:59;2.23;;;0.70;;
2187;SDS011;1100;52.014;8.540;2022-09-03T03:08:27;2.78;;;0.63;;
2187;SDS011;1100;52.014;8.540;2022-09-03T03:10:54;3.13;;;0.73;;
2187;SDS011;1100;52.014;8.540;2022-09-03T03:13:22;3.93;;;0.80;;
2187;SDS011;1100;52.014;8.540;2022-09-03T03:15:48;2.55;;;0.50;;
2187;SDS011;1100;52.014;8.540;2022-09-03T03:18:14;2.53;;;0.73;;
2187;SDS011;1100;52.014;8.540;2022-09-03T03:20:42;3.30;;;1.00;;
2187;SDS011;1100;52.014;8.540;2022-09-03T03:23:08;2.63;;;0.75;;
2187;SDS011;1100;52.014;8.540;2022-09-03T03:25:34;3.10;;;0.80;;
2187;SDS011;1100;52.014;8.540;2022-09-03T03:28:01;3.50;;;0.80;;
2187;SDS011;1100;52.014;8.540;2022-09-03T03:30:28;2.73;;;0.80;;
2187;SDS011;1100;52.014;8.540;2022-09-03T03:32:53;3.60;;;0.98;;
2187;SDS011;1100;52.014;8.540;2022-09-03T03:35:19;3.17;;;1.00;;
2187;SDS011;1100;52.014;8.540;2022-09-03T03:37:45;2.90;;;0.83;;
2187;SDS011;1100;52.014;8.540;2022-09-03T03:40:10;3.73;;;1.03;;
2187;SDS011;1100;52.014;8.540;2022-09-03T03:42:36;6.20;;;0.73;;
2187;SDS011;1100;52.014;8.540;2022-09-03T03:45:02;2.60;;;0.80;;
2187;SDS011;1100;52.014;8.540;2022-09-03T03:47:28;3.10;;;0.93;;
2187;SDS011;1100;52.014;8.540;2022-09-03T03:49:57;2.92;;;0.75;;
2187;SDS011;1100;52.014;8.540;2022-09-03T03:52:24;4.17;;;0.80;;
2187;SDS011;1100;52.014;8.540;2022-09-03T03:54:50;2.78;;;0.65;;
2187;SDS011;1100;52.014;8.540;2022-09-03T03:57:16;2.65;;;0.80;;
2187;SDS011;1100;52.014;8.540;2022-09-03T03:59:43;2.72;;;0.60;;
2187;SDS011;1100;52.014;8.540;2022-09-03T04:02:09;2.60;;;0.77;;
2187;SDS011;1100;52.014;8.540;2022-09-03T04:04:34;3.87;;;1.10;;
2187;SDS011;1100;52.014;8.540;2022-09-03T04:07:00;2.63;;;0.70;;
2187;SDS011;1100;52.014;8.540;2022-09-03T04:09:26;3.22;;;1.08;;
2187;SDS011;1100;52.014;8.540;2022-09-03T04:11:51;2.93;;;0.70;;
2187;SDS011;1100;52.014;8.540;2022-09-03T04:14:16;4.40;;;1.00;;
2187;SDS011;1100;52.014;8.540;2022-09-03T04:16:42;3.93;;;0.80;;
2187;SDS011;1100;52.014;8.540;2022-09-03T04:19:10;2.53;;;0.80;;
2187;SDS011;1100;52.014;8.540;2022-09-03T04:21:37;3.05;;;0.90;;
2187;SDS011;1100;52.014;8.540;2022-09-03T04:24:03;3.97;;;1.02;;
2187;SDS011;1100;52.014;8.540;2022-09-03T04:26:29;2.60;;;0.80;;
2187;SDS011;1100;52.014;8.540;2022-09-03T04:28:56;4.18;;;0.80;;
2187;SDS011;1100;52.014;8.540;2022-09-03T04:31:26;3.42;;;1.00;;
2187;SDS011;1100;52.014;8.540;2022-09-03T04:33:51;3.70;;;0.90;;
2187;SDS011;1100;52.014;8.540;2022-09-03T04:36:19;3.65;;;1.20;;
2187;SDS011;1100;52.014;8.540;2022-09-03T04:38:47;3.28;;;0.77;;
2187;SDS011;1100;52.014;8.540;2022-09-03T04:41:15;3.95;;;0.80;;
2187;SDS011;1100;52.014;8.540;2022-09-03T04:43:42;3.20;;;0.90;;
2187;SDS011;1100;52.014;8.540;2022-09-03T04:46:09;3.15;;;1.00;;
2187;SDS011;1100;52.014;8.540;2022-09-03T04:48:36;3.20;;;0.90;;
2187;SDS011;1100;52.014;8.540;2022-09-03T04:51:06;3.80;;;0.80;;
2187;SDS011;1100;52.014;8.540;2022-09-03T04:53:34;3.33;;;0.90;;
2187;SDS011;1100;52.014;8.540;2022-09-03T04:56:17;2.63;;;0.83;;
2187;SDS011;1100;52.014;8.540;2022-09-03T04:58:45;3.50;;;0.80;;
2187;SDS011;1100;52.014;8.540;2022-09-03T05:01:15;5.40;;;1.20;;
2187;SDS011;1100;52.014;8.540;2022-09-03T05:03:44;3.20;;;0.88;;
2187;SDS011;1100;52.014;8.540;2022-09-03T05:06:10;3.90;;;1.03;;
2187;SDS011;1100;52.014;8.540;2022-09-03T05:08:36;3.03;;;1.05;;
2187;SDS011;1100;52.014;8.540;2022-09-03T05:11:02;2.87;;;0.77;;
2187;SDS011;1100;52.014;8.540;2022-09-03T05:13:29;3.45;;;1.00;;
2187;SDS011;1100;52.014;8.540;2022-09-03T05:16:13;3.10;;;1.00;;
2187;SDS011;1100;52.014;8.540;2022-09-03T05:18:39;3.80;;;1.05;;
2187;SDS011;1100;52.014;8.540;2022-09-03T05:21:07;4.45;;;1.30;;
2187;SDS011;1100;52.014;8.540;2022-09-03T05:23:37;3.87;;;1.00;;
2187;SDS011;1100;52.014;8.540;2022-09-03T05:26:05;4.72;;;1.10;;
2187;SDS011;1100;52.014;8.540;2022-09-03T05:28:35;3.25;;;1.10;;
2187;SDS011;1100;52.014;8.540;2022-09-03T05:31:03;4.50;;;1.00;;
2187;SDS011;1100;52.014;8.540;2022-09-03T05:33:33;3.88;;;0.82;;
2187;SDS011;1100;52.014;8.540;2022-09-03T05:36:00;3.50;;;1.00;;
2187;SDS011;1100;52.014;8.540;2022-09-03T05:38:27;3.20;;;1.10;;
2187;SDS011;1100;52.014;8.540;2022-09-03T05:40:52;4.20;;;1.17;;
2187;SDS011;1100;52.014;8.540;2022-09-03T05:43:17;3.63;;;1.20;;
2187;SDS011;1100;52.014;8.540;2022-09-03T05:45:44;3.97;;;1.30;;
2187;SDS011;1100;52.014;8.540;2022-09-03T05:48:09;3.83;;;1.30;;
2187;SDS011;1100;52.014;8.540;2022-09-03T05:50:34;3.03;;;1.07;;
2187;SDS011;1100;52.014;8.540;2022-09-03T05:52:59;3.97;;;1.13;;
2187;SDS011;1100;52.014;8.540;2022-09-03T05:55:25;3.27;;;1.00;;
2187;SDS011;1100;52.014;8.540;2022-09-03T05:57:52;4.43;;;1.40;;
2187;SDS011;1100;52.014;8.540;2022-09-03T06:00:18;5.20;;;1.00;;
2187;SDS011;1100;52.014;8.540;2022-09-03T06:02:48;3.97;;;1.15;;
2187;SDS011;1100;52.014;8.540;2022-09-03T06:05:15;4.80;;;1.30;;
2187;SDS011;1100;52.014;8.540;2022-09-03T06:07:40;4.63;;;1.17;;
2187;SDS011;1100;52.014;8.540;2022-09-03T06:10:06;3.40;;;1.10;;
2187;SDS011;1100;52.014;8.540;2022-09-03T06:12:32;3.17;;;1.30;;
2187;SDS011;1100;52.014;8.540;2022-09-03T06:14:57;3.83;;;0.90;;
2187;SDS011;1100;52.014;8.540;2022-09-03T06:17:22;3.20;;;0.93;;
2187;SDS011;1100;52.014;8.540;2022-09-03T06:19:48;6.57;;;1.10;;
2187;SDS011;1100;52.014;8.540;2022-09-03T06:22:13;3.60;;;1.50;;
2187;SDS011;1100;52.014;8.540;2022-09-03T06:24:38;6.03;;;1.13;;
2187;SDS011;1100;52.014;8.540;2022-09-03T06:27:04;4.03;;;1.10;;
2187;SDS011;1100;52.014;8.540;2022-09-03T06:29:29;4.90;;;0.90;;
2187;SDS011;1100;52.014;8.540;2022-09-03T06:31:55;4.50;;;1.10;;
2187;SDS011;1100;52.014;8.540;2022-09-03T06:34:21;3.85;;;1.17;;
2187;SDS011;1100;52.014;8.540;2022-09-03T06:36:47;5.78;;;1.40;;
2187;SDS011;1100;52.014;8.540;2022-09-03T06:39:13;4.47;;;1.10;;
2187;SDS011;1100;52.014;8.540;2022-09-03T06:41:38;3.27;;;1.00;;
2187;SDS011;1100;52.014;8.540;2022-09-03T06:44:04;3.25;;;0.90;;
2187;SDS011;1100;52.014;8.540;2022-09-03T06:46:35;3.97;;;1.15;;
2187;SDS011;1100;52.014;8.540;2022-09-03T06:49:06;3.80;;;0.87;;
2187;SDS011;1100;52.014;8.540;2022-09-03T06:51:32;2.65;;;0.70;;
2187;SDS011;1100;52.014;8.540;2022-09-03T06:53:59;3.10;;;0.98;;
2187;SDS011;1100;52.014;8.540;2022-09-03T06:56:26;4.00;;;0.90;;
2187;SDS011;1100;52.014;8.540;2022-09-03T06:59:13;3.08;;;0.80;;
2187;SDS011;1100;52.014;8.540;2022-09-03T07:01:39;3.40;;;0.90;;
2187;SDS011;1100;52.014;8.540;2022-09-03T07:04:05;2.83;;;0.75;;
2187;SDS011;1100;52.014;8.540;2022-09-03T07:06:36;3.55;;;1.00;;
2187;SDS011;1100;52.014;8.540;2022-09-03T07:09:06;3.08;;;0.70;;
2187;SDS011;1100;52.014;8.540;2022-09-03T07:11:33;2.92;;;0.60;;
2187;SDS011;1100;52.014;8.540;2022-09-03T07:14:00;3.27;;;1.07;;
2187;SDS011;1100;52.014;8.540;2022-09-03T07:16:29;3.28;;;0.93;;
2187;SDS011;1100;52.014;8.540;2022-09-03T07:18:57;2.70;;;0.70;;
2187;SDS011;1100;52.014;8.540;2022-09-03T07:21:23;3.23;;;0.90;;
2187;SDS011;1100;52.014;8.540;2022-09-03T07:23:50;2.92;;;0.90;;
2187;SDS011;1100;52.014;8.540;2022-09-03T07:28:47;3.92;;;1.10;;
2187;SDS011;1100;52.014;8.540;2022-09-03T07:31:14;3.40;;;0.97;;
2187;SDS011;1100;52.014;8.540;2022-09-03T07:33:43;4.60;;;1.10;;
2187;SDS011;1100;52.014;8.540;2022-09-03T07:36:11;4.53;;;0.93;;
2187;SDS011;1100;52.014;8.540;2022-09-03T07:38:38;2.97;;;1.25;;
2187;SDS011;1100;52.014;8.540;2022-09-03T07:41:05;4.78;;;0.90;;
2187;SDS011;1100;52.014;8.540;2022-09-03T07:43:33;4.20;;;0.90;;
2187;SDS011;1100;52.014;8.540;2022-09-03T07:46:08;3.00;;;0.80;;
2187;SDS011;1100;52.014;8.540;2022-09-03T07:48:36;4.18;;;0.90;;
2187;SDS011;1100;52.014;8.540;2022-09-03T07:51:05;4.30;;;0.95;;
2187;SDS011;1100;52.014;8.540;2022-09-03T07:53:31;3.80;;;1.00;;
2187;SDS011;1100;52.014;8.540;2022-09-03T07:56:01;5.80;;;1.17;;
2187;SDS011;1100;52.014;8.540;2022-09-03T07:58:30;3.10;;;0.75;;
2187;SDS011;1100;52.014;8.540;2022-09-03T08:00:57;4.38;;;0.80;;
2187;SDS011;1100;52.014;8.540;2022-09-03T08:03:23;5.43;;;0.93;;
2187;SDS011;1100;52.014;8.540;2022-09-03T08:05:49;3.00;;;1.10;;
2187;SDS011;1100;52.014;8.540;2022-09-03T08:08:14;2.90;;;0.70;;
2187;SDS011;1100;52.014;8.540;2022-09-03T08:10:41;3.58;;;0.98;;
2187;SDS011;1100;52.014;8.540;2022-09-03T08:13:07;3.70;;;1.00;;
2187;SDS011;1100;52.014;8.540;2022-09-03T08:15:33;10.23;;;1.10;;
2187;SDS011;1100;52.014;8.540;2022-09-03T08:17:59;3.30;;;1.00;;
2187;SDS011;1100;52.014;8.540;2022-09-03T08:20:25;2.90;;;0.83;;
2187;SDS011;1100;52.014;8.540;2022-09-03T08:22:51;4.38;;;1.00;;
2187;SDS011;1100;52.014;8.540;2022-09-03T08:25:17;4.70;;;1.00;;
2187;SDS011;1100;52.014;8.540;2022-09-03T08:27:42;4.37;;;0.90;;
2187;SDS011;1100;52.014;8.540;2022-09-03T08:30:09;5.28;;;0.90;;
2187;SDS011;1100;52.014;8.540;2022-09-03T08:32:38;3.00;;;0.80;;
2187;SDS011;1100;52.014;8.540;2022-09-03T08:35:04;24.50;;;3.67;;
2187;SDS011;1100;52.014;8.540;2022-09-03T08:37:31;4.10;;;1.42;;
2187;SDS011;1100;52.014;8.540;2022-09-03T08:39:57;3.75;;;1.10;;
2187;SDS011;1100;52.014;8.540;2022-09-03T08:44:51;3.88;;;1.10;;
2187;SDS011;1100;52.014;8.540;2022-09-03T08:55:19;3.63;;;1.30;;
2187;SDS011;1100;52.014;8.540;2022-09-03T08:57:50;4.00;;;1.20;;
2187;SDS011;1100;52.014;8.540;2022-09-03T09:00:21;4.00;;;1.20;;
2187;SDS011;1100;52.014;8.540;2022-09-03T09:05:42;3.92;;;1.10;;
2187;SDS011;1100;52.014;8.540;2022-09-03T09:08:22;3.25;;;1.00;;
2187;SDS011;1100;52.014;8.540;2022-09-03T09:11:07;4.32;;;1.10;;
2187;SDS011;1100;52.014;8.540;2022-09-03T09:14:12;3.07;;;1.00;;
2187;SDS011;1100;52.014;8.540;2022-09-03T09:23:09;3.38;;;0.90;;
2187;SDS011;1100;52.014;8.540;2022-09-03T09:25:30;4.05;;;1.20;;
2187;SDS011;1100;52.014;8.540;2022-09-03T09:28:01;4.30;;;1.10;;
2187;SDS011;1100;52.014;8.540;2022-09-03T09:30:29;4.28;;;0.90;;
2187;SDS011;1100;52.014;8.540;2022-09-03T09:32:55;3.45;;;1.00;;
2187;SDS011;1100;52.014;8.540;2022-09-03T09:35:21;3.00;;;0.87;;
2187;SDS011;1100;52.014;8.540;2022-09-03T09:37:48;5.18;;;1.30;;
2187;SDS011;1100;52.014;8.540;2022-09-03T09:40:29;2.60;;;0.80;;
2187;SDS011;1100;52.014;8.540;2022-09-03T09:45:32;2.97;;;0.87;;
2187;SDS011;1100;52.014;8.540;2022-09-03T09:47:58;3.72;;;0.93;;
2187;SDS011;1100;52.014;8.540;2022-09-03T09:50:24;2.58;;;0.98;;
2187;SDS011;1100;52.014;8.540;2022-09-03T09:52:58;3.43;;;0.73;;
2187;SDS011;1100;52.014;8.540;2022-09-03T09:55:32;5.90;;;1.10;;
2187;SDS011;1100;52.014;8.540;2022-09-03T09:58:05;3.03;;;0.90;;
2187;SDS011;1100;52.014;8.540;2022-09-03T10:00:33;3.60;;;1.10;;
2187;SDS011;1100;52.014;8.540;2022-09-03T10:03:01;4.88;;;1.02;;
2187;SDS011;1100;52.014;8.540;2022-09-03T10:05:34;3.03;;;0.87;;
2187;SDS011;1100;52.014;8.540;2022-09-03T10:08:05;3.33;;;1.08;;
2187;SDS011;1100;52.014;8.540;2022-09-03T10:10:43;3.08;;;1.00;;
2187;SDS011;1100;52.014;8.540;2022-09-03T10:13:16;4.95;;;1.35;;
2187;SDS011;1100;52.014;8.540;2022-09-03T10:15:44;3.97;;;0.82;;
2187;SDS011;1100;52.014;8.540;2022-09-03T10:23:55;3.42;;;1.10;;
2187;SDS011;1100;52.014;8.540;2022-09-03T10:26:25;4.30;;;0.82;;
2187;SDS011;1100;52.014;8.540;2022-09-03T10:28:55;4.40;;;0.93;;
2187;SDS011;1100;52.014;8.540;2022-09-03T10:45:18;4.20;;;1.10;;
2187;SDS011;1100;52.014;8.540;2022-09-03T10:48:11;3.60;;;1.20;;
2187;SDS011;1100;52.014;8.540;2022-09-03T10:55:59;3.22;;;1.00;;
2187;SDS011;1100;52.014;8.540;2022-09-03T11:01:00;3.33;;;1.10;;
2187;SDS011;1100;52.014;8.540;2022-09-03T11:03:38;5.32;;;0.98;;
2187;SDS011;1100;52.014;8.540;2022-09-03T11:06:28;3.00;;;1.00;;
2187;SDS011;1100;52.014;8.540;2022-09-03T11:09:05;4.35;;;0.80;;
2187;SDS011;1100;52.014;8.540;2022-09-03T11:11:52;4.03;;;0.90;;
2187;SDS011;1100;52.014;8.540;2022-09-03T11:14:44;3.42;;;0.70;;
2187;SDS011;1100;52.014;8.540;2022-09-03T11:17:12;4.28;;;0.90;;
2187;SDS011;1100;52.014;8.540;2022-09-03T11:19:47;5.22;;;1.10;;
2187;SDS011;1100;52.014;8.540;2022-09-03T11:22:32;3.38;;;1.15;;
2187;SDS011;1100;52.014;8.540;2022-09-03T11:24:58;4.37;;;0.90;;
2187;SDS011;1100;52.014;8.540;2022-09-03T11:27:31;3.58;;;1.00;;
2187;SDS011;1100;52.014;8.540;2022-09-03T11:30:08;4.70;;;1.02;;
2187;SDS011;1100;52.014;8.540;2022-09-03T11:35:12;3.75;;;1.00;;
2187;SDS011;1100;52.014;8.540;2022-09-03T11:37:51;2.93;;;1.20;;
2187;SDS011;1100;52.014;8.540;2022-09-03T11:40:28;4.32;;;0.80;;
2187;SDS011;1100;52.014;8.540;2022-09-03T11:43:11;3.80;;;0.90;;
2187;SDS011;1100;52.014;8.540;2022-09-03T11:50:58;3.40;;;1.03;;
2187;SDS011;1100;52.014;8.540;2022-09-03T11:53:25;3.97;;;1.23;;
2187;SDS011;1100;52.014;8.540;2022-09-03T11:56:08;3.70;;;0.90;;
2187;SDS011;1100;52.014;8.540;2022-09-03T11:58:41;2.97;;;0.90;;
2187;SDS011;1100;52.014;8.540;2022-09-03T12:01:08;3.72;;;1.35;;
2187;SDS011;1100;52.014;8.540;2022-09-03T12:17:33;3.78;;;1.15;;
2187;SDS011;1100;52.014;8.540;2022-09-03T12:20:14;5.25;;;1.17;;
2187;SDS011;1100;52.014;8.540;2022-09-03T12:22:41;4.33;;;1.10;;
2187;SDS011;1100;52.014;8.540;2022-09-03T12:25:13;3.33;;;1.10;;
2187;SDS011;1100;52.014;8.540;2022-09-03T12:27:40;3.55;;;1.20;;
2187;SDS011;1100;52.014;8.540;2022-09-03T12:30:16;3.90;;;1.10;;
2187;SDS011;1100;52.014;8.540;2022-09-03T12:36:07;3.50;;;1.00;;
2187;SDS011;1100;52.014;8.540;2022-09-03T12:38:33;4.90;;;0.98;;
2187;SDS011;1100;52.014;8.540;2022-09-03T12:40:59;3.43;;;1.20;;
2187;SDS011;1100;52.014;8.540;2022-09-03T12:43:28;5.43;;;0.93;;
2187;SDS011;1100;52.014;8.540;2022-09-03T12:45:53;4.15;;;1.00;;
2187;SDS011;1100;52.014;8.540;2022-09-03T12:48:19;2.85;;;1.17;;
2187;SDS011;1100;52.014;8.540;2022-09-03T12:50:46;4.68;;;1.10;;
2187;SDS011;1100;52.014;8.540;2022-09-03T12:53:16;4.13;;;1.20;;
2187;SDS011;1100;52.014;8.540;2022-09-03T12:55:51;6.82;;;1.10;;
2187;SDS011;1100;52.014;8.540;2022-09-03T13:00:57;3.05;;;1.10;;
2187;SDS011;1100;52.014;8.540;2022-09-03T13:03:30;3.33;;;0.98;;
2187;SDS011;1100;52.014;8.540;2022-09-03T13:06:05;2.80;;;1.00;;
2187;SDS011;1100;52.014;8.540;2022-09-03T13:08:43;4.28;;;1.10;;
2187;SDS011;1100;52.014;8.540;2022-09-03T13:11:09;4.00;;;1.10;;
2187;SDS011;1100;52.014;8.540;2022-09-03T13:13:35;3.83;;;1.27;;
2187;SDS011;1100;52.014;8.540;2022-09-03T13:18:36;5.27;;;1.00;;
2187;SDS011;1100;52.014;8.540;2022-09-03T13:30:06;3.25;;;1.08;;
2187;SDS011;1100;52.014;8.540;2022-09-03T13:35:29;3.70;;;1.08;;
2187;SDS011;1100;52.014;8.540;2022-09-03T13:41:01;3.75;;;1.23;;
2187;SDS011;1100;52.014;8.540;2022-09-03T13:44:33;4.47;;;1.10;;
2187;SDS011;1100;52.014;8.540;2022-09-03T13:52:33;3.10;;;1.10;;
2187;SDS011;1100;52.014;8.540;2022-09-03T13:55:40;4.25;;;1.10;;
2187;SDS011;1100;52.014;8.540;2022-09-03T13:58:05;3.25;;;1.30;;
2187;SDS011;1100;52.014;8.540;2022-09-03T14:06:07;3.75;;;1.20;;
2187;SDS011;1100;52.014;8.540;2022-09-03T14:08:34;4.97;;;1.20;;
2187;SDS011;1100;52.014;8.540;2022-09-03T14:16:30;4.40;;;1.30;;
2187;SDS011;1100;52.014;8.540;2022-09-03T14:19:16;5.75;;;1.30;;
2187;SDS011;1100;52.014;8.540;2022-09-03T14:21:55;5.10;;;1.35;;
2187;SDS011;1100;52.014;8.540;2022-09-03T14:24:26;4.47;;;1.05;;
2187;SDS011;1100;52.014;8.540;2022-09-03T14:27:02;3.00;;;1.05;;
2187;SDS011;1100;52.014;8.540;2022-09-03T14:29:30;4.23;;;1.37;;
2187;SDS011;1100;52.014;8.540;2022-09-03T14:46:15;3.60;;;1.20;;
2187;SDS011;1100;52.014;8.540;2022-09-03T15:07:41;4.20;;;1.20;;
2187;SDS011;1100;52.014;8.540;2022-09-03T15:10:34;4.43;;;1.13;;
2187;SDS011;1100;52.014;8.540;2022-09-03T15:13:11;6.32;;;1.42;;
2187;SDS011;1100;52.014;8.540;2022-09-03T15:20:51;3.47;;;1.10;;
2187;SDS011;1100;52.014;8.540;2022-09-03T15:23:19;3.03;;;1.30;;
2187;SDS011;1100;52.014;8.540;2022-09-03T15:36:50;2.83;;;1.00;;
2187;SDS011;1100;52.014;8.540;2022-09-03T15:39:30;3.67;;;1.10;;
2187;SDS011;1100;52.014;8.540;2022-09-03T15:41:59;3.33;;;1.20;;
2187;SDS011;1100;52.014;8.540;2022-09-03T15:45:05;4.78;;;1.25;;
2187;SDS011;1100;52.014;8.540;2022-09-03T15:47:35;3.95;;;1.15;;
2187;SDS011;1100;52.014;8.540;2022-09-03T15:53:01;4.38;;;1.40;;
2187;SDS011;1100;52.014;8.540;2022-09-03T15:55:49;3.10;;;1.20;;
2187;SDS011;1100;52.014;8.540;2022-09-03T15:58:40;3.78;;;1.20;;
2187;SDS011;1100;52.014;8.540;2022-09-03T16:04:07;4.78;;;1.15;;
2187;SDS011;1100;52.014;8.540;2022-09-03T16:06:48;4.38;;;1.27;;
2187;SDS011;1100;52.014;8.540;2022-09-03T16:15:01;2.92;;;1.10;;
2187;SDS011;1100;52.014;8.540;2022-09-03T16:17:32;6.43;;;1.48;;
2187;SDS011;1100;52.014;8.540;2022-09-03T16:25:06;3.90;;;1.30;;
2187;SDS011;1100;52.014;8.540;2022-09-03T16:30:21;3.22;;;0.93;;
2187;SDS011;1100;52.014;8.540;2022-09-03T16:44:40;3.10;;;1.10;;
2187;SDS011;1100;52.014;8.540;2022-09-03T16:47:38;3.50;;;1.20;;
2187;SDS011;1100;52.014;8.540;2022-09-03T16:50:17;3.28;;;1.02;;
2187;SDS011;1100;52.014;8.540;2022-09-03T16:53:00;5.32;;;1.30;;
2187;SDS011;1100;52.014;8.540;2022-09-03T16:58:24;2.90;;;0.90;;
2187;SDS011;1100;52.014;8.540;2022-09-03T17:03:46;3.78;;;1.10;;
2187;SDS011;1100;52.014;8.540;2022-09-03T17:09:04;4.23;;;1.10;;
2187;SDS011;1100;52.014;8.540;2022-09-03T17:11:58;3.67;;;1.08;;
2187;SDS011;1100;52.014;8.540;2022-09-03T17:17:29;4.07;;;1.00;;
2187;SDS011;1100;52.014;8.540;2022-09-03T17:33:16;2.90;;;1.00;;
2187;SDS011;1100;52.014;8.540;2022-09-03T17:41:49;4.38;;;1.20;;
2187;SDS011;1100;52.014;8.540;2022-09-03T17:49:55;5.00;;;1.30;;
2187;SDS011;1100;52.014;8.540;2022-09-03T17:52:31;4.50;;;1.40;;
2187;SDS011;1100;52.014;8.540;2022-09-03T17:58:10;4.57;;;1.27;;
2187;SDS011;1100;52.014;8.540;2022-09-03T18:00:44;4.35;;;1.50;;
2187;SDS011;1100;52.014;8.540;2022-09-03T18:03:18;4.33;;;1.60;;
2187;SDS011;1100;52.014;8.540;2022-09-03T18:06:05;4.40;;;1.50;;
2187;SDS011;1100;52.014;8.540;2022-09-03T18:08:40;4.07;;;1.50;;
2187;SDS011;1100;52.014;8.540;2022-09-03T18:11:18;3.35;;;1.23;;
2187;SDS011;1100;52.014;8.540;2022-09-03T18:17:02;4.67;;;1.20;;
2187;SDS011;1100;52.014;8.540;2022-09-03T18:19:34;4.22;;;1.30;;
2187;SDS011;1100;52.014;8.540;2022-09-03T18:22:25;4.00;;;1.55;;
2187;SDS011;1100;52.014;8.540;2022-09-03T18:25:16;5.05;;;1.50;;
2187;SDS011;1100;52.014;8.540;2022-09-03T18:28:05;5.63;;;1.50;;
2187;SDS011;1100;52.014;8.540;2022-09-03T18:30:53;4.93;;;1.37;;
2187;SDS011;1100;52.014;8.540;2022-09-03T18:33:37;5.07;;;1.75;;
2187;SDS011;1100;52.014;8.540;2022-09-03T18:36:21;4.93;;;1.60;;
2187;SDS011;1100;52.014;8.540;2022-09-03T18:39:18;4.63;;;1.77;;
2187;SDS011;1100;52.014;8.540;2022-09-03T18:42:12;4.47;;;1.60;;
2187;SDS011;1100;52.014;8.540;2022-09-03T18:51:56;4.13;;;2.00;;
2187;SDS011;1100;52.014;8.540;2022-09-03T19:00:32;5.90;;;2.23;;
2187;SDS011;1100;52.014;8.540;2022-09-03T19:03:42;5.38;;;2.00;;
2187;SDS011;1100;52.014;8.540;2022-09-03T19:06:37;5.55;;;1.90;;
2187;SDS011;1100;52.014;8.540;2022-09-03T19:15:50;4.27;;;1.60;;
2187;SDS011;1100;52.014;8.540;2022-09-03T19:19:02;4.28;;;1.30;;
2187;SDS011;1100;52.014;8.540;2022-09-03T19:22:00;4.25;;;1.58;;
2187;SDS011;1100;52.014;8.540;2022-09-03T19:28:12;4.15;;;1.40;;
2187;SDS011;1100;52.014;8.540;2022-09-03T19:34:23;5.30;;;1.30;;
2187;SDS011;1100;52.014;8.540;2022-09-03T19:37:40;4.10;;;1.30;;
2187;SDS011;1100;52.014;8.540;2022-09-03T19:49:29;4.90;;;1.90;;
2187;SDS011;1100;52.014;8.540;2022-09-03T19:55:14;5.65;;;1.83;;
2187;SDS011;1100;52.014;8.540;2022-09-03T19:58:03;6.18;;;2.85;;
2187;SDS011;1100;52.014;8.540;2022-09-03T20:00:47;5.10;;;2.00;;
2187;SDS011;1100;52.014;8.540;2022-09-03T20:03:31;5.13;;;2.00;;
2187;SDS011;1100;52.014;8.540;2022-09-03T20:06:17;4.82;;;2.05;;
2187;SDS011;1100;52.014;8.540;2022-09-03T20:09:03;4.65;;;1.90;;
2187;SDS011;1100;52.014;8.540;2022-09-03T20:11:51;5.60;;;1.77;;
2187;SDS011;1100;52.014;8.540;2022-09-03T20:14:20;5.80;;;2.03;;
2187;SDS011;1100;52.014;8.540;2022-09-03T20:32:34;5.10;;;2.50;;
2187;SDS011;1100;52.014;8.540;2022-09-03T20:40:45;9.23;;;2.38;;
2187;SDS011;1100;52.014;8.540;2022-09-03T20:52:14;5.35;;;2.40;;
2187;SDS011;1100;52.014;8.540;2022-09-03T21:00:20;5.68;;;2.50;;
2187;SDS011;1100;52.014;8.540;2022-09-03T21:11:37;4.95;;;2.15;;
2187;SDS011;1100;52.014;8.540;2022-09-03T21:16:50;4.70;;;2.13;;
2187;SDS011;1100;52.014;8.540;2022-09-03T21:25:10;6.55;;;2.65;;
2187;SDS011;1100;52.014;8.540;2022-09-03T21:27:40;5.35;;;2.25;;
2187;SDS011;1100;52.014;8.540;2022-09-03T21:30:25;6.30;;;2.27;;
2187;SDS011;1100;52.014;8.540;2022-09-03T21:33:05;6.18;;;2.47;;
2187;SDS011;1100;52.014;8.540;2022-09-03T21:35:40;4.97;;;2.17;;
2187;SDS011;1100;52.014;8.540;2022-09-03T21:38:13;7.18;;;2.70;;
2187;SDS011;1100;52.014;8.540;2022-09-03T21:40:58;6.43;;;2.67;;
2187;SDS011;1100;52.014;8.540;2022-09-03T21:46:17;5.38;;;2.40;;
2187;SDS011;1100;52.014;8.540;2022-09-03T21:48:51;6.07;;;2.17;;
2187;SDS011;1100;52.014;8.540;2022-09-03T21:51:30;5.43;;;2.35;;
2187;SDS011;1100;52.014;8.540;2022-09-03T21:54:06;6.30;;;2.85;;
2187;SDS011;1100;52.014;8.540;2022-09-03T22:04:40;6.68;;;2.67;;
2187;SDS011;1100;52.014;8.540;2022-09-03T22:12:23;6.57;;;2.90;;
2187;SDS011;1100;52.014;8.540;2022-09-03T22:15:10;5.90;;;2.72;;
2187;SDS011;1100;52.014;8.540;2022-09-03T22:20:11;5.85;;;2.50;;
2187;SDS011;1100;52.014;8.540;2022-09-03T22:22:41;5.72;;;2.88;;
2187;SDS011;1100;52.014;8.540;2022-09-03T22:25:41;6.17;;;2.53;;
2187;SDS011;1100;52.014;8.540;2022-09-03T22:28:24;6.38;;;2.22;;
2187;SDS011;1100;52.014;8.540;2022-09-03T22:31:00;5.70;;;2.60;;
2187;SDS011;1100;52.014;8.540;2022-09-03T22:33:50;5.32;;;2.42;;
2187;SDS011;1100;52.014;8.540;2022-09-03T22:36:38;6.28;;;2.30;;